createdAt,value
2023-02-09T00:01:21.945Z,52.90
2023-02-09T00:03:49.163Z,52.90
2023-02-09T00:06:17.944Z,52.90
2023-02-09T00:08:45.194Z,52.90
2023-02-09T00:11:18.149Z,52.90
2023-02-09T00:13:46.285Z,53.00
2023-02-09T00:16:13.628Z,53.00
2023-02-09T00:18:40.367Z,53.00
2023-02-09T00:21:09.036Z,53.00
2023-02-09T00:23:38.203Z,52.90
2023-02-09T00:26:07.100Z,52.90
2023-02-09T00:28:33.995Z,52.90
2023-02-09T00:31:06.147Z,52.90
2023-02-09T00:33:32.825Z,52.90
2023-02-09T00:35:59.498Z,52.90
2023-02-09T00:38:26.145Z,53.00
2023-02-09T00:40:52.787Z,52.80
2023-02-09T00:43:19.437Z,52.80
2023-02-09T00:45:46.099Z,52.80
2023-02-09T00:48:14.123Z,52.70
2023-02-09T00:50:40.834Z,52.70
2023-02-09T00:53:07.572Z,52.70
2023-02-09T00:55:34.352Z,52.70
2023-02-09T00:58:01.054Z,52.70
2023-02-09T01:00:27.801Z,52.70
2023-02-09T01:02:56.044Z,52.60
2023-02-09T01:05:24.124Z,52.70
2023-02-09T01:07:50.817Z,52.70
2023-02-09T01:10:17.551Z,52.60
2023-02-09T01:12:44.330Z,52.70
2023-02-09T01:15:11.648Z,52.80
2023-02-09T01:17:38.544Z,52.60
2023-02-09T01:20:07.426Z,52.50
2023-02-09T01:22:36.559Z,52.50
2023-02-09T01:25:03.632Z,52.50
2023-02-09T01:27:30.346Z,52.50
2023-02-09T01:29:57.210Z,52.50
2023-02-09T01:32:24.133Z,52.70
2023-02-09T01:34:51.003Z,52.50
2023-02-09T01:37:17.815Z,52.50
2023-02-09T01:39:45.938Z,52.50
2023-02-09T01:42:14.846Z,52.50
2023-02-09T01:45:21.567Z,52.50
2023-02-09T01:47:52.174Z,52.50
2023-02-09T01:50:19.748Z,52.70
2023-02-09T01:52:48.008Z,52.60
2023-02-09T01:55:19.819Z,52.60
2023-02-09T01:57:50.630Z,52.60
2023-02-09T02:00:21.118Z,52.60
2023-02-09T02:02:50.926Z,52.60
2023-02-09T02:05:18.892Z,52.50
2023-02-09T02:07:51.634Z,52.50
2023-02-09T02:10:19.802Z,52.50
2023-02-09T02:12:46.681Z,52.50
2023-02-09T02:15:13.508Z,52.50
2023-02-09T02:18:00.549Z,52.40
2023-02-09T02:20:53.482Z,52.40
2023-02-09T02:23:29.734Z,52.40
2023-02-09T02:26:40.797Z,52.40
2023-02-09T02:29:40.151Z,52.40
2023-02-09T02:32:16.681Z,52.50
2023-02-09T02:34:47.114Z,52.50
2023-02-09T02:37:28.048Z,52.50
2023-02-09T02:40:03.628Z,52.50
2023-02-09T02:42:40.111Z,52.40
2023-02-09T02:45:13.043Z,52.50
2023-02-09T02:47:46.327Z,52.40
2023-02-09T02:50:16.376Z,52.40
2023-02-09T02:52:46.902Z,52.40
2023-02-09T02:55:16.708Z,52.40
2023-02-09T02:57:48.737Z,52.40
2023-02-09T03:00:19.032Z,52.30
2023-02-09T03:02:50.785Z,52.20
2023-02-09T03:05:20.055Z,52.30
2023-02-09T03:07:46.746Z,52.40
2023-02-09T03:10:26.431Z,52.30
2023-02-09T03:13:08.762Z,52.30
2023-02-09T03:15:45.068Z,52.30
2023-02-09T03:18:22.856Z,52.30
2023-02-09T03:20:54.719Z,52.40
2023-02-09T03:23:29.722Z,52.30
2023-02-09T03:25:58.152Z,52.30
2023-02-09T03:28:28.735Z,52.40
2023-02-09T03:30:57.423Z,52.40
2023-02-09T03:33:29.368Z,52.30
2023-02-09T03:35:58.955Z,52.40
2023-02-09T03:38:26.524Z,52.40
2023-02-09T03:40:54.832Z,52.30
2023-02-09T03:43:21.493Z,52.30
2023-02-09T03:45:48.179Z,52.40
2023-02-09T03:48:14.977Z,52.50
2023-02-09T03:50:43.206Z,52.50
2023-02-09T03:53:10.030Z,52.40
2023-02-09T03:55:36.682Z,52.40
2023-02-09T03:58:03.389Z,52.40
2023-02-09T04:00:30.103Z,52.30
2023-02-09T04:02:56.830Z,52.40
2023-02-09T04:05:23.592Z,52.30
2023-02-09T04:07:51.687Z,52.40
2023-02-09T04:10:18.872Z,52.30
2023-02-09T04:12:45.577Z,52.30
2023-02-09T04:15:12.272Z,52.30
2023-02-09T04:17:38.991Z,52.30
2023-02-09T04:20:06.315Z,52.20
2023-02-09T04:22:32.967Z,52.20
2023-02-09T04:25:01.058Z,52.10
2023-02-09T04:27:27.716Z,52.20
2023-02-09T04:29:54.401Z,52.20
2023-02-09T04:32:21.099Z,52.20
2023-02-09T04:34:47.740Z,52.30
2023-02-09T04:37:14.496Z,52.30
2023-02-09T04:39:41.264Z,52.20
2023-02-09T04:42:09.438Z,52.20
2023-02-09T04:44:36.136Z,52.20
2023-02-09T04:47:02.968Z,52.20
2023-02-09T04:49:29.647Z,52.20
2023-02-09T04:51:56.381Z,52.20
2023-02-09T04:54:23.073Z,52.10
2023-02-09T04:56:49.811Z,52.20
2023-02-09T04:59:17.819Z,52.20
2023-02-09T05:01:44.473Z,52.20
2023-02-09T05:04:11.159Z,52.20
2023-02-09T05:06:37.834Z,52.20
2023-02-09T05:09:04.643Z,52.20
2023-02-09T05:11:31.312Z,52.10
2023-02-09T05:13:58.059Z,52.10
2023-02-09T05:16:26.163Z,52.20
2023-02-09T05:18:52.908Z,52.20
2023-02-09T05:21:19.591Z,52.20
2023-02-09T05:23:46.311Z,52.20
2023-02-09T05:26:13.018Z,52.20
2023-02-09T05:28:39.710Z,52.90
2023-02-09T05:31:06.482Z,52.30
2023-02-09T05:33:34.528Z,52.20
2023-02-09T05:36:01.181Z,52.20
2023-02-09T05:38:27.910Z,52.40
2023-02-09T05:40:54.543Z,52.20
2023-02-09T05:43:21.265Z,52.20
2023-02-09T05:45:47.979Z,52.10
2023-02-09T05:48:14.707Z,52.00
2023-02-09T05:50:42.812Z,52.00
2023-02-09T05:53:09.665Z,52.10
2023-02-09T05:55:36.649Z,52.00
2023-02-09T05:58:03.519Z,52.00
2023-02-09T06:00:30.286Z,52.00
2023-02-09T06:02:57.205Z,51.90
2023-02-09T06:05:24.233Z,51.90
2023-02-09T06:07:52.499Z,51.80
2023-02-09T06:10:19.921Z,51.80
2023-02-09T06:12:46.601Z,51.80
2023-02-09T06:15:14.170Z,51.70
2023-02-09T06:17:40.880Z,51.80
2023-02-09T06:20:08.368Z,51.70
2023-02-09T06:22:35.096Z,51.70
2023-02-09T06:25:03.530Z,51.90
2023-02-09T06:27:30.254Z,51.80
2023-02-09T06:29:57.015Z,51.80
2023-02-09T06:32:23.714Z,51.70
2023-02-09T06:34:50.392Z,51.70
2023-02-09T06:37:17.113Z,51.70
2023-02-09T06:39:43.820Z,52.40
2023-02-09T06:42:11.867Z,51.70
2023-02-09T06:44:38.614Z,51.70
2023-02-09T06:47:05.406Z,51.70
2023-02-09T06:49:32.270Z,51.70
2023-02-09T06:51:59.084Z,51.90
2023-02-09T06:54:26.034Z,51.80
2023-02-09T06:56:52.724Z,51.80
2023-02-09T06:59:21.064Z,51.80
2023-02-09T07:01:49.785Z,51.90
2023-02-09T07:04:16.709Z,51.90
2023-02-09T07:06:44.123Z,52.00
2023-02-09T07:09:10.799Z,52.00
2023-02-09T07:11:37.475Z,51.80
2023-02-09T07:14:04.163Z,51.90
2023-02-09T07:16:32.193Z,51.90
2023-02-09T07:19:00.361Z,51.90
2023-02-09T07:21:27.408Z,51.90
2023-02-09T07:23:54.075Z,51.90
2023-02-09T07:26:20.726Z,51.80
2023-02-09T07:28:47.359Z,51.90
2023-02-09T07:31:15.761Z,51.90
2023-02-09T07:33:44.284Z,51.90
2023-02-09T07:36:12.944Z,51.90
2023-02-09T07:38:40.121Z,52.10
2023-02-09T07:41:12.567Z,51.90
2023-02-09T07:43:39.245Z,51.90
2023-02-09T07:46:07.835Z,52.00
2023-02-09T07:48:35.758Z,52.00
2023-02-09T07:51:04.468Z,52.00
2023-02-09T07:53:31.384Z,52.10
2023-02-09T07:55:58.077Z,52.20
2023-02-09T07:58:24.927Z,52.20
2023-02-09T08:00:51.835Z,52.40
2023-02-09T08:03:20.412Z,52.30
2023-02-09T08:05:50.523Z,52.30
2023-02-09T08:08:18.507Z,52.30
2023-02-09T08:10:45.471Z,52.40
2023-02-09T08:13:13.182Z,52.50
2023-02-09T08:15:43.136Z,52.50
2023-02-09T08:18:13.365Z,52.40
2023-02-09T08:20:40.725Z,52.40
2023-02-09T08:23:15.275Z,52.30
2023-02-09T08:25:43.556Z,52.40
2023-02-09T08:28:10.586Z,52.40
2023-02-09T08:30:37.983Z,52.70
2023-02-09T08:33:04.661Z,52.70
2023-02-09T08:35:31.458Z,52.70
2023-02-09T08:38:01.634Z,52.70
2023-02-09T08:40:29.165Z,52.80
2023-02-09T08:42:57.543Z,52.90
2023-02-09T08:45:24.603Z,52.80
2023-02-09T08:47:51.367Z,52.90
2023-02-09T08:50:18.198Z,52.90
2023-02-09T08:52:44.911Z,53.00
2023-02-09T08:55:11.835Z,53.00
2023-02-09T08:57:44.395Z,53.10
2023-02-09T09:00:14.994Z,53.10
2023-02-09T09:02:41.729Z,53.10
2023-02-09T09:05:08.907Z,53.10
2023-02-09T09:07:35.603Z,53.10
2023-02-09T09:10:02.354Z,53.10
2023-02-09T09:12:29.892Z,53.20
2023-02-09T09:14:56.719Z,53.30
2023-02-09T09:17:24.796Z,53.30
2023-02-09T09:19:51.492Z,53.50
2023-02-09T09:22:18.295Z,53.50
2023-02-09T09:24:45.001Z,53.60
2023-02-09T09:27:12.117Z,53.70
2023-02-09T09:29:38.957Z,54.00
2023-02-09T09:32:06.006Z,54.00
2023-02-09T09:34:34.424Z,53.90
2023-02-09T09:37:01.187Z,53.70
2023-02-09T09:39:28.145Z,53.80
2023-02-09T09:41:58.157Z,53.90
2023-02-09T09:44:30.855Z,53.70
2023-02-09T09:47:00.550Z,53.40
2023-02-09T09:49:28.963Z,53.40
2023-02-09T09:52:02.175Z,53.30
2023-02-09T09:54:31.539Z,53.30
2023-02-09T09:56:59.137Z,53.40
2023-02-09T09:59:28.803Z,53.30
2023-02-09T10:01:57.301Z,53.30
2023-02-09T10:04:24.032Z,53.10
2023-02-09T10:06:59.858Z,53.20
2023-02-09T10:09:37.044Z,53.30
2023-02-09T10:12:15.276Z,53.40
2023-02-09T10:14:42.010Z,53.40
2023-02-09T10:17:08.957Z,53.20
2023-02-09T10:19:35.640Z,53.20
2023-02-09T10:22:04.219Z,52.70
2023-02-09T10:24:32.995Z,52.70
2023-02-09T10:27:06.426Z,52.30
2023-02-09T10:29:33.896Z,52.50
2023-02-09T10:32:05.720Z,52.30
2023-02-09T10:34:43.712Z,52.10
2023-02-09T10:37:21.907Z,51.80
2023-02-09T10:39:56.047Z,52.00
2023-02-09T10:42:27.040Z,52.40
2023-02-09T10:44:56.091Z,53.20
2023-02-09T10:47:30.616Z,53.20
2023-02-09T10:50:01.716Z,53.60
2023-02-09T10:52:34.421Z,53.80
2023-02-09T10:55:05.465Z,53.40
2023-02-09T10:57:35.879Z,52.90
2023-02-09T11:00:27.298Z,52.50
2023-02-09T11:02:55.724Z,52.20
2023-02-09T11:05:34.574Z,53.00
2023-02-09T11:08:12.405Z,52.60
2023-02-09T11:10:43.029Z,51.90
2023-02-09T11:13:18.868Z,51.40
2023-02-09T11:15:59.550Z,51.50
2023-02-09T11:18:32.026Z,51.10
2023-02-09T11:21:07.872Z,51.10
2023-02-09T11:23:45.219Z,49.10
2023-02-09T11:26:19.142Z,49.90
2023-02-09T11:28:53.549Z,51.70
2023-02-09T11:31:43.689Z,50.90
2023-02-09T11:34:27.672Z,51.50
2023-02-09T11:37:06.682Z,51.70
2023-02-09T11:39:43.254Z,51.50
2023-02-09T11:42:16.857Z,51.40
2023-02-09T11:44:47.771Z,52.70
2023-02-09T11:47:23.914Z,51.40
2023-02-09T11:49:53.634Z,51.80
2023-02-09T11:52:25.066Z,50.90
2023-02-09T11:54:59.478Z,51.20
2023-02-09T11:57:34.221Z,52.00
2023-02-09T12:00:04.338Z,49.80
2023-02-09T12:02:42.614Z,51.00
2023-02-09T12:05:13.585Z,52.40
2023-02-09T12:07:46.298Z,52.20
2023-02-09T12:10:23.841Z,51.70
2023-02-09T12:12:54.198Z,53.10
2023-02-09T12:15:24.268Z,52.30
2023-02-09T12:17:56.498Z,50.80
2023-02-09T12:20:27.386Z,51.00
2023-02-09T12:23:04.588Z,51.20
2023-02-09T12:25:51.628Z,49.50
2023-02-09T12:28:41.988Z,50.00
2023-02-09T12:31:12.911Z,49.40
2023-02-09T12:34:00.137Z,46.70
2023-02-09T12:36:29.416Z,46.90
2023-02-09T12:39:04.582Z,48.00
2023-02-09T12:42:08.160Z,47.40
2023-02-09T12:44:52.986Z,48.40
2023-02-09T12:47:42.581Z,46.40
2023-02-09T12:50:22.693Z,45.70
2023-02-09T12:53:23.042Z,45.50
2023-02-09T12:55:58.828Z,47.00
2023-02-09T12:58:36.484Z,45.30
2023-02-09T13:01:04.081Z,45.30
2023-02-09T13:03:33.941Z,45.80
2023-02-09T13:06:01.931Z,46.50
2023-02-09T13:08:34.576Z,46.10
2023-02-09T13:11:05.145Z,45.90
2023-02-09T13:13:44.553Z,45.70
2023-02-09T13:16:43.833Z,45.00
2023-02-09T13:19:20.962Z,45.70
2023-02-09T13:21:58.619Z,44.20
2023-02-09T13:24:35.009Z,43.60
2023-02-09T13:27:01.949Z,45.20
2023-02-09T13:29:31.737Z,46.40
2023-02-09T13:32:08.374Z,45.90
2023-02-09T13:34:39.743Z,46.30
2023-02-09T13:37:17.755Z,45.40
2023-02-09T13:39:44.673Z,45.00
2023-02-09T13:42:17.573Z,44.10
2023-02-09T13:44:46.480Z,45.00
2023-02-09T13:47:15.236Z,46.20
2023-02-09T13:49:42.991Z,46.70
2023-02-09T13:52:11.989Z,46.60
2023-02-09T13:54:39.103Z,46.50
2023-02-09T13:57:10.166Z,46.50
2023-02-09T13:59:39.985Z,45.90
2023-02-09T14:02:18.096Z,47.30
2023-02-09T14:04:49.115Z,46.10
2023-02-09T14:07:16.570Z,46.70
2023-02-09T14:09:46.812Z,47.40
2023-02-09T14:12:17.395Z,47.20
2023-02-09T14:14:53.812Z,47.40
2023-02-09T14:17:25.978Z,47.30
2023-02-09T14:19:53.218Z,46.30
2023-02-09T14:22:28.736Z,46.20
2023-02-09T14:24:55.439Z,46.10
2023-02-09T14:27:24.858Z,46.70
2023-02-09T14:29:51.616Z,46.40
2023-02-09T14:32:33.103Z,45.20
2023-02-09T14:35:16.298Z,45.60
2023-02-09T14:37:43.863Z,46.10
2023-02-09T14:40:22.321Z,46.60
2023-02-09T14:42:57.152Z,46.30
2023-02-09T14:45:30.224Z,46.70
2023-02-09T14:47:58.244Z,46.80
2023-02-09T14:50:24.923Z,47.20
2023-02-09T14:52:54.282Z,47.40
2023-02-09T14:55:24.984Z,47.00
2023-02-09T14:57:51.641Z,47.60
2023-02-09T15:00:22.071Z,48.00
2023-02-09T15:02:50.445Z,47.50
2023-02-09T15:05:19.530Z,47.40
2023-02-09T15:07:49.204Z,46.90
2023-02-09T15:10:26.293Z,47.70
2023-02-09T15:12:53.671Z,47.80
2023-02-09T15:15:21.718Z,47.90
2023-02-09T15:17:48.761Z,47.80
2023-02-09T15:20:18.936Z,47.40
2023-02-09T15:22:45.610Z,47.40
2023-02-09T15:25:13.968Z,47.80
2023-02-09T15:27:44.342Z,47.00
2023-02-09T15:30:15.056Z,47.70
2023-02-09T15:32:41.723Z,48.30
2023-02-09T15:35:12.647Z,49.10
2023-02-09T15:37:41.492Z,49.00
2023-02-09T15:40:19.580Z,49.10
2023-02-09T15:42:46.274Z,49.10
2023-02-09T15:45:18.044Z,49.70
2023-02-09T15:47:44.700Z,49.90
2023-02-09T15:50:11.493Z,50.10
2023-02-09T15:52:38.157Z,50.10
2023-02-09T15:55:07.533Z,49.80
2023-02-09T15:57:34.256Z,49.20
2023-02-09T16:00:00.893Z,49.40
2023-02-09T16:02:27.672Z,49.60
2023-02-09T16:04:54.385Z,50.00
2023-02-09T16:07:24.112Z,49.20
2023-02-09T16:09:51.640Z,49.30
2023-02-09T16:12:19.901Z,49.40
2023-02-09T16:14:46.640Z,49.80
2023-02-09T16:17:13.347Z,50.30
2023-02-09T16:19:39.991Z,50.20
2023-02-09T16:22:07.145Z,50.30
2023-02-09T16:24:39.532Z,50.50
2023-02-09T16:27:14.639Z,50.30
2023-02-09T16:29:43.021Z,50.30
2023-02-09T16:32:15.901Z,50.50
2023-02-09T16:34:42.870Z,50.30
2023-02-09T16:37:13.071Z,50.00
2023-02-09T16:39:39.722Z,50.10
2023-02-09T16:42:11.268Z,50.20
2023-02-09T16:44:37.934Z,50.00
2023-02-09T16:47:19.385Z,50.00
2023-02-09T16:49:50.991Z,49.70
2023-02-09T16:52:20.186Z,50.00
2023-02-09T16:54:48.915Z,49.70
2023-02-09T16:57:17.398Z,49.80
2023-02-09T16:59:44.382Z,50.00
2023-02-09T17:02:32.449Z,50.10
2023-02-09T17:05:00.501Z,49.80
2023-02-09T17:07:31.003Z,50.20
2023-02-09T17:09:57.767Z,50.00
2023-02-09T17:12:24.443Z,49.80
2023-02-09T17:14:51.096Z,49.90
2023-02-09T17:17:20.149Z,49.70
2023-02-09T17:19:49.697Z,49.80
2023-02-09T17:22:16.969Z,50.00
2023-02-09T17:24:43.626Z,50.10
2023-02-09T17:27:10.498Z,49.90
2023-02-09T17:29:37.150Z,49.50
2023-02-09T17:32:04.042Z,50.00
2023-02-09T17:34:30.913Z,49.80
2023-02-09T17:36:58.991Z,49.40
2023-02-09T17:39:25.645Z,49.30
2023-02-09T17:41:52.589Z,49.30
2023-02-09T17:44:34.782Z,49.30
2023-02-09T17:47:06.199Z,49.50
2023-02-09T17:49:32.851Z,49.30
2023-02-09T17:52:00.919Z,49.30
2023-02-09T17:54:27.548Z,49.60
2023-02-09T17:56:54.211Z,49.80
2023-02-09T17:59:26.796Z,49.90
2023-02-09T18:01:53.463Z,49.70
2023-02-09T18:04:22.595Z,49.80
2023-02-09T18:06:49.330Z,50.00
2023-02-09T18:09:17.385Z,50.00
2023-02-09T18:11:59.569Z,49.90
2023-02-09T18:14:27.812Z,49.70
2023-02-09T18:16:54.837Z,49.90
2023-02-09T18:19:22.542Z,50.20
2023-02-09T18:21:50.646Z,50.20
2023-02-09T18:24:20.664Z,50.20
2023-02-09T18:26:47.416Z,50.20
2023-02-09T18:29:14.420Z,50.30
2023-02-09T18:31:41.135Z,50.50
2023-02-09T18:34:08.031Z,50.60
2023-02-09T18:36:36.132Z,50.30
2023-02-09T18:39:03.604Z,50.30
2023-02-09T18:41:31.667Z,50.60
2023-02-09T18:43:58.431Z,50.50
2023-02-09T18:46:25.198Z,50.60
2023-02-09T18:48:51.942Z,50.70
2023-02-09T18:51:18.829Z,50.60
2023-02-09T18:53:45.588Z,50.30
2023-02-09T18:56:17.403Z,50.30
2023-02-09T18:58:45.414Z,50.50
2023-02-09T19:01:12.824Z,50.70
2023-02-09T19:03:39.764Z,50.60
2023-02-09T19:06:10.274Z,50.60
2023-02-09T19:08:37.204Z,50.40
2023-02-09T19:11:04.105Z,50.80
2023-02-09T19:13:30.876Z,50.60
2023-02-09T19:15:59.038Z,50.70
2023-02-09T19:18:25.809Z,50.60
2023-02-09T19:20:52.924Z,50.60
2023-02-09T19:23:19.576Z,50.60
2023-02-09T19:25:46.435Z,50.90
2023-02-09T19:28:13.362Z,50.90
2023-02-09T19:30:41.553Z,50.90
2023-02-09T19:33:09.908Z,50.80
2023-02-09T19:35:36.633Z,50.90
2023-02-09T19:38:03.291Z,51.00
2023-02-09T19:40:30.004Z,50.90
2023-02-09T19:42:57.145Z,50.90
2023-02-09T19:45:24.136Z,50.70
2023-02-09T19:47:50.835Z,50.90
2023-02-09T19:50:19.052Z,50.70
2023-02-09T19:52:45.700Z,50.80
2023-02-09T19:55:13.380Z,51.00
2023-02-09T19:57:40.041Z,50.80
2023-02-09T20:00:07.324Z,50.80
2023-02-09T20:02:35.812Z,50.60
2023-02-09T20:05:02.482Z,50.90
2023-02-09T20:07:30.476Z,50.70
2023-02-09T20:09:57.130Z,50.80
2023-02-09T20:12:23.853Z,50.90
2023-02-09T20:14:52.668Z,51.10
2023-02-09T20:19:45.909Z,50.90
2023-02-09T20:22:12.905Z,50.90
2023-02-09T20:24:40.923Z,51.10
2023-02-09T20:27:07.657Z,50.90
2023-02-09T20:29:37.367Z,51.10
2023-02-09T20:32:04.487Z,51.00
2023-02-09T20:34:31.165Z,50.80
2023-02-09T20:36:57.806Z,50.90
2023-02-09T20:39:24.492Z,50.90
2023-02-09T20:41:56.823Z,50.80
2023-02-09T20:44:23.479Z,50.90
2023-02-09T20:46:50.116Z,50.70
2023-02-09T20:49:18.158Z,50.50
2023-02-09T20:51:45.425Z,50.60
2023-02-09T20:54:12.585Z,50.50
2023-02-09T20:56:39.328Z,50.60
2023-02-09T20:59:07.609Z,50.30
2023-02-09T21:01:35.991Z,50.00
2023-02-09T21:04:02.658Z,50.20
2023-02-09T21:06:29.302Z,50.20
2023-02-09T21:08:55.936Z,50.20
2023-02-09T21:11:22.645Z,50.20
2023-02-09T21:13:49.319Z,50.00
2023-02-09T21:16:17.919Z,50.10
2023-02-09T21:18:44.587Z,50.00
2023-02-09T21:21:14.857Z,50.20
2023-02-09T21:23:42.158Z,50.20
2023-02-09T21:26:11.911Z,50.50
2023-02-09T21:28:38.704Z,50.20
2023-02-09T21:31:10.346Z,50.00
2023-02-09T21:33:38.411Z,50.20
2023-02-09T21:36:05.927Z,50.30
2023-02-09T21:38:32.902Z,50.70
2023-02-09T21:40:59.535Z,50.80
2023-02-09T21:43:26.202Z,50.50
2023-02-09T21:45:53.096Z,50.80
2023-02-09T21:48:19.769Z,51.00
2023-02-09T21:50:47.749Z,51.00
2023-02-09T21:53:14.430Z,50.90
2023-02-09T21:55:41.145Z,50.90
2023-02-09T21:58:07.818Z,50.90
2023-02-09T22:00:34.469Z,51.00
2023-02-09T22:03:01.168Z,51.00
2023-02-09T22:05:27.866Z,51.10
2023-02-09T22:07:55.851Z,51.10
2023-02-09T22:10:22.519Z,50.90
2023-02-09T22:12:49.220Z,51.00
2023-02-09T22:15:15.886Z,51.20
2023-02-09T22:17:42.538Z,51.30
2023-02-09T22:20:10.531Z,51.50
2023-02-09T22:22:37.388Z,51.30
2023-02-09T22:25:06.005Z,51.40
2023-02-09T22:27:32.666Z,51.30
2023-02-09T22:29:59.312Z,51.10
2023-02-09T22:32:25.957Z,51.10
2023-02-09T22:34:52.620Z,51.20
2023-02-09T22:37:19.234Z,51.10
2023-02-09T22:39:46.893Z,51.10
2023-02-09T22:42:14.890Z,51.20
2023-02-09T22:44:41.542Z,51.20
2023-02-09T22:47:08.212Z,51.50
2023-02-09T22:49:34.866Z,51.60
2023-02-09T22:52:01.519Z,51.50
2023-02-09T22:54:28.212Z,51.80
2023-02-09T22:56:54.844Z,51.70
2023-02-09T22:59:22.841Z,51.60
2023-02-09T23:01:49.528Z,51.30
2023-02-09T23:04:16.346Z,51.50
2023-02-09T23:06:43.115Z,51.50
2023-02-09T23:09:11.678Z,51.60
2023-02-09T23:11:38.344Z,51.40
2023-02-09T23:14:10.542Z,51.60
2023-02-09T23:16:40.582Z,51.60
2023-02-09T23:19:09.544Z,51.60
2023-02-09T23:21:37.745Z,51.60
2023-02-09T23:24:05.484Z,51.80
2023-02-09T23:26:32.513Z,51.90
2023-02-09T23:29:01.957Z,51.80
2023-02-09T23:31:29.127Z,51.70
2023-02-09T23:33:57.576Z,51.70
2023-02-09T23:36:25.760Z,51.70
2023-02-09T23:38:53.474Z,51.70
2023-02-09T23:41:20.192Z,51.90
2023-02-09T23:43:48.060Z,52.10
2023-02-09T23:46:18.349Z,52.70
2023-02-09T23:48:45.162Z,52.10
2023-02-09T23:51:15.267Z,52.30
2023-02-09T23:53:42.164Z,52.30
2023-02-09T23:56:08.973Z,52.30
2023-02-09T23:58:37.958Z,52.40
